Eureka, Kansas
Current Conditions -  °F | °C
As of 2:55 AM on Thursday 23 Oct 2014 (Local Time) from KEQA Reporting Station
Overcast Overcast  
Wind Chill: 63°   Ceiling: 5500
Heat Index: 63°   Visibility: 10mi
Dew Point: 59°   Wind: 7mph
Humidity: 88%   Direction: 190°S
Pressure: 30.09"   Gusts: NA
Location:  37.82°N, 96.29°W
Report Text: KEQA 230755Z AUTO 19006KT 10SM BKN055 BKN080 OVC085 17/15 A3009 RMK AO2
Loading
Personal Weather Stations






























Interactive Weather Map
Tropical Storm Tracking
New forecast layout! Learn more

10-Day Weather Forecast

Advertisements
Track Severe Weather on mobile